createdAt,value
2018-06-30T00:01:11.266Z,99.90
2018-06-30T00:03:46.857Z,99.90
2018-06-30T00:06:17.383Z,99.90
2018-06-30T00:08:47.840Z,99.90
2018-06-30T00:11:18.463Z,99.90
2018-06-30T00:13:48.787Z,99.90
2018-06-30T00:16:19.259Z,99.90
2018-06-30T00:18:49.870Z,99.90
2018-06-30T00:21:20.402Z,99.90
2018-06-30T00:23:51.150Z,99.90
2018-06-30T00:26:21.882Z,99.90
2018-06-30T00:28:52.411Z,99.90
2018-06-30T00:31:23.068Z,99.90
2018-06-30T00:33:53.495Z,99.90
2018-06-30T00:36:24.094Z,99.90
2018-06-30T00:38:54.485Z,99.90
2018-06-30T00:41:24.875Z,99.90
2018-06-30T00:43:55.559Z,99.90
2018-06-30T00:46:26.151Z,99.90
2018-06-30T00:48:56.592Z,99.90
2018-06-30T00:51:26.982Z,99.90
2018-06-30T00:53:57.287Z,99.90
2018-06-30T00:56:27.741Z,99.90
2018-06-30T00:58:58.272Z,99.90
2018-06-30T01:01:28.542Z,99.90
2018-06-30T01:03:58.930Z,99.90
2018-06-30T01:06:29.449Z,99.90
2018-06-30T01:08:59.874Z,99.90
2018-06-30T01:11:30.384Z,99.90
2018-06-30T01:14:00.804Z,99.90
2018-06-30T01:16:31.461Z,99.90
2018-06-30T01:19:02.051Z,99.90
2018-06-30T01:21:32.658Z,99.90
2018-06-30T01:24:03.104Z,99.90
2018-06-30T01:26:33.477Z,99.90
2018-06-30T01:29:03.907Z,99.90
2018-06-30T01:31:34.548Z,99.90
2018-06-30T01:34:04.791Z,99.90
2018-06-30T01:36:35.238Z,99.90
2018-06-30T01:39:08.137Z,99.90
2018-06-30T01:41:38.603Z,99.90
2018-06-30T01:44:09.104Z,99.90
2018-06-30T01:46:39.640Z,99.90
2018-06-30T01:49:09.972Z,99.90
2018-06-30T01:51:40.395Z,99.90
2018-06-30T01:54:10.796Z,99.90
2018-06-30T01:56:41.254Z,99.90
2018-06-30T01:59:11.676Z,99.90
2018-06-30T02:01:42.235Z,99.90
2018-06-30T02:04:12.720Z,99.90
2018-06-30T02:06:43.247Z,99.90
2018-06-30T02:09:13.683Z,99.90
2018-06-30T02:11:44.096Z,99.90
2018-06-30T02:14:14.498Z,99.90
2018-06-30T02:19:14.902Z,99.90
2018-06-30T02:21:45.391Z,99.90
2018-06-30T02:24:15.899Z,99.90
2018-06-30T02:26:46.443Z,99.90
2018-06-30T02:29:16.779Z,99.90
2018-06-30T02:31:47.247Z,99.90
2018-06-30T02:34:17.758Z,99.90
2018-06-30T02:36:48.437Z,99.90
2018-06-30T02:39:18.988Z,99.90
2018-06-30T02:44:19.425Z,99.90
2018-06-30T02:46:49.792Z,99.90
2018-06-30T02:49:20.079Z,99.90
2018-06-30T02:51:50.773Z,99.90
2018-06-30T02:54:21.290Z,99.90
2018-06-30T02:56:51.831Z,99.90
2018-06-30T02:59:22.383Z,99.90
2018-06-30T03:01:52.826Z,99.90
2018-06-30T03:04:23.301Z,99.90
2018-06-30T03:06:54.076Z,99.90
2018-06-30T03:09:24.549Z,99.90
2018-06-30T03:14:25.088Z,99.90
2018-06-30T03:16:59.241Z,99.90
2018-06-30T03:19:29.891Z,99.90
2018-06-30T03:22:00.268Z,99.90
2018-06-30T03:24:30.756Z,99.90
2018-06-30T03:27:01.239Z,99.90
2018-06-30T03:29:31.716Z,99.90
2018-06-30T03:32:02.462Z,99.90
2018-06-30T03:34:32.958Z,99.90
2018-06-30T03:37:03.381Z,99.90
2018-06-30T03:39:33.917Z,99.90
2018-06-30T03:42:04.306Z,99.90
2018-06-30T03:44:34.617Z,99.90
2018-06-30T03:47:05.123Z,99.90
2018-06-30T03:49:35.888Z,99.90
2018-06-30T03:52:06.388Z,99.90
2018-06-30T03:54:37.107Z,99.90
2018-06-30T03:57:07.781Z,99.90
2018-06-30T03:59:38.240Z,99.90
2018-06-30T04:02:08.776Z,99.90
2018-06-30T04:04:39.562Z,99.90
2018-06-30T04:07:10.035Z,99.90
2018-06-30T04:09:41.636Z,99.90
2018-06-30T04:12:12.170Z,99.90
2018-06-30T04:14:45.931Z,99.90
2018-06-30T04:17:19.808Z,99.90
2018-06-30T04:19:50.348Z,99.90
2018-06-30T04:22:21.223Z,99.90
2018-06-30T04:24:51.853Z,99.90
2018-06-30T04:27:22.596Z,99.90
2018-06-30T04:29:53.216Z,99.90
2018-06-30T04:32:23.959Z,99.90
2018-06-30T04:34:54.459Z,99.90
2018-06-30T04:37:25.073Z,99.90
2018-06-30T04:39:55.507Z,99.90
2018-06-30T04:42:26.203Z,99.90
2018-06-30T04:44:56.497Z,99.90
2018-06-30T04:47:26.913Z,99.90
2018-06-30T04:49:57.287Z,99.90
2018-06-30T04:52:27.899Z,99.90
2018-06-30T04:54:58.355Z,99.90
2018-06-30T04:57:28.770Z,99.90
2018-06-30T04:59:59.239Z,99.90
2018-06-30T05:02:29.595Z,99.90
2018-06-30T05:04:59.975Z,99.90
2018-06-30T05:07:29.836Z,99.90
2018-06-30T05:10:00.099Z,99.90
2018-06-30T05:12:30.319Z,99.90
2018-06-30T05:15:00.427Z,99.90
2018-06-30T05:17:30.399Z,99.90
2018-06-30T05:22:30.252Z,99.90
2018-06-30T05:25:00.207Z,99.90
2018-06-30T05:27:30.205Z,99.90
2018-06-30T05:30:00.228Z,99.90
2018-06-30T05:32:30.167Z,99.90
2018-06-30T05:35:00.176Z,99.90
2018-06-30T05:39:59.638Z,99.90
2018-06-30T05:42:29.690Z,99.90
2018-06-30T05:44:59.775Z,99.90
2018-06-30T05:47:29.925Z,99.90
2018-06-30T05:50:00.106Z,98.30
2018-06-30T05:52:30.223Z,95.30
2018-06-30T05:55:00.328Z,91.40
2018-06-30T05:57:30.295Z,88.60
2018-06-30T06:00:00.235Z,86.80
2018-06-30T06:02:30.164Z,82.30
2018-06-30T06:05:00.071Z,80.80
2018-06-30T06:07:30.197Z,77.20
2018-06-30T06:10:00.177Z,74.60
2018-06-30T06:12:30.215Z,74.80
2018-06-30T06:15:00.187Z,74.20
2018-06-30T06:17:30.171Z,77.60
2018-06-30T06:20:00.342Z,73.60
2018-06-30T06:22:30.297Z,69.40
2018-06-30T06:25:00.210Z,66.30
2018-06-30T06:27:30.245Z,64.20
2018-06-30T06:30:10.330Z,61.30
2018-06-30T06:32:40.689Z,57.80
2018-06-30T06:35:10.538Z,56.80
2018-06-30T06:40:10.090Z,55.90
2018-06-30T06:42:40.214Z,55.00
2018-06-30T06:45:10.477Z,55.20
2018-06-30T06:47:40.624Z,56.30
2018-06-30T06:50:10.731Z,55.10
2018-06-30T06:52:40.847Z,54.00
2018-06-30T06:55:10.855Z,53.70
2018-06-30T06:57:45.018Z,52.80
2018-06-30T07:00:14.832Z,51.80
2018-06-30T07:02:44.797Z,53.30
2018-06-30T07:05:18.577Z,52.40
2018-06-30T07:07:48.558Z,53.10
2018-06-30T07:10:18.608Z,53.70
2018-06-30T07:12:48.623Z,52.50
2018-06-30T07:15:18.482Z,51.30
2018-06-30T07:17:48.321Z,50.40
2018-06-30T07:20:18.602Z,50.70
2018-06-30T07:22:48.494Z,51.00
2018-06-30T07:27:47.987Z,52.70
2018-06-30T07:30:18.142Z,53.80
2018-06-30T07:32:47.937Z,55.40
2018-06-30T07:35:29.350Z,56.30
2018-06-30T07:37:59.247Z,55.80
2018-06-30T07:40:29.283Z,54.50
2018-06-30T07:42:59.323Z,51.90
2018-06-30T07:45:29.463Z,52.90
2018-06-30T07:48:00.374Z,53.30
2018-06-30T07:50:30.338Z,51.40
2018-06-30T07:53:00.448Z,53.10
2018-06-30T07:55:30.752Z,52.10
2018-06-30T07:58:00.710Z,51.60
2018-06-30T08:00:30.874Z,50.90
2018-06-30T08:03:00.909Z,49.80
2018-06-30T08:05:30.811Z,48.50
2018-06-30T08:08:00.655Z,50.00
2018-06-30T08:10:36.446Z,49.80
2018-06-30T08:13:06.546Z,49.40
2018-06-30T08:15:36.473Z,47.80
2018-06-30T08:18:06.350Z,49.80
2018-06-30T08:20:36.608Z,50.00
2018-06-30T08:23:06.909Z,48.10
2018-06-30T08:25:37.309Z,48.20
2018-06-30T08:28:14.774Z,47.80
2018-06-30T08:30:44.830Z,47.90
2018-06-30T08:33:14.719Z,51.00
2018-06-30T08:35:44.666Z,51.70
2018-06-30T08:38:14.591Z,51.70
2018-06-30T08:40:44.484Z,50.30
2018-06-30T08:43:14.527Z,51.40
2018-06-30T08:45:44.675Z,51.20
2018-06-30T08:48:14.654Z,49.50
2018-06-30T08:50:44.638Z,50.10
2018-06-30T08:53:14.679Z,50.70
2018-06-30T08:55:44.865Z,51.00
2018-06-30T08:58:14.603Z,50.50
2018-06-30T09:00:44.660Z,50.10
2018-06-30T09:03:14.628Z,50.30
2018-06-30T09:05:51.308Z,50.60
2018-06-30T09:08:21.345Z,52.90
2018-06-30T09:10:51.347Z,53.30
2018-06-30T09:13:21.350Z,52.00
2018-06-30T09:15:51.249Z,47.90
2018-06-30T09:20:50.816Z,50.10
2018-06-30T09:23:20.799Z,51.70
2018-06-30T09:25:50.923Z,51.40
2018-06-30T09:28:21.331Z,48.80
2018-06-30T09:30:51.263Z,50.60
2018-06-30T09:33:21.157Z,46.40
2018-06-30T09:35:51.228Z,44.70
2018-06-30T09:38:21.152Z,45.90
2018-06-30T09:40:51.038Z,48.50
2018-06-30T09:43:21.007Z,46.70
2018-06-30T09:45:50.957Z,43.80
2018-06-30T09:48:20.890Z,42.90
2018-06-30T09:50:50.900Z,41.60
2018-06-30T09:53:20.783Z,43.10
2018-06-30T09:55:50.715Z,45.80
2018-06-30T09:58:20.698Z,45.80
2018-06-30T10:00:55.752Z,45.40
2018-06-30T10:03:26.284Z,46.10
2018-06-30T10:05:56.203Z,43.60
2018-06-30T10:08:26.174Z,41.50
2018-06-30T10:10:56.091Z,39.30
2018-06-30T10:13:26.014Z,39.60
2018-06-30T10:15:55.882Z,38.90
2018-06-30T10:18:25.959Z,38.00
2018-06-30T10:20:55.976Z,37.80
2018-06-30T10:23:25.810Z,37.50
2018-06-30T10:25:55.823Z,37.70
2018-06-30T10:28:25.886Z,38.40
2018-06-30T10:30:55.894Z,38.50
2018-06-30T10:33:25.843Z,37.90
2018-06-30T10:35:55.802Z,38.80
2018-06-30T10:38:25.695Z,41.40
2018-06-30T10:40:55.606Z,42.70
2018-06-30T10:43:25.711Z,40.80
2018-06-30T10:45:55.686Z,38.70
2018-06-30T10:48:25.811Z,38.00
2018-06-30T10:50:55.911Z,35.70
2018-06-30T10:53:25.962Z,36.90
2018-06-30T10:55:55.863Z,37.40
2018-06-30T10:58:25.783Z,37.20
2018-06-30T11:00:55.826Z,37.40
2018-06-30T11:03:25.871Z,36.90
2018-06-30T11:05:56.000Z,37.50
2018-06-30T11:08:25.852Z,35.70
2018-06-30T11:10:56.081Z,35.80
2018-06-30T11:13:25.876Z,36.80
2018-06-30T11:15:55.991Z,35.80
2018-06-30T11:18:26.211Z,35.10
2018-06-30T11:20:56.296Z,34.70
2018-06-30T11:23:26.303Z,34.00
2018-06-30T11:25:56.250Z,33.10
2018-06-30T11:28:26.213Z,33.30
2018-06-30T11:33:26.014Z,33.70
2018-06-30T11:35:55.963Z,34.00
2018-06-30T11:38:25.889Z,33.30
2018-06-30T11:40:58.766Z,34.10
2018-06-30T11:43:28.604Z,35.10
2018-06-30T11:45:59.752Z,35.10
2018-06-30T11:48:29.558Z,33.70
2018-06-30T11:50:59.205Z,33.70
2018-06-30T11:53:28.824Z,35.10
2018-06-30T11:56:09.675Z,35.40
2018-06-30T11:58:39.538Z,34.60
2018-06-30T12:01:09.356Z,34.80
2018-06-30T12:03:39.063Z,34.20
2018-06-30T12:06:08.987Z,32.80
2018-06-30T12:08:38.702Z,31.70
2018-06-30T12:11:08.409Z,30.90
2018-06-30T12:13:38.084Z,31.30
2018-06-30T12:16:07.900Z,31.30
2018-06-30T12:18:37.547Z,31.80
2018-06-30T12:21:07.437Z,31.30
2018-06-30T12:23:37.355Z,31.60
2018-06-30T12:26:07.036Z,31.00
2018-06-30T12:28:37.228Z,31.30
2018-06-30T12:31:06.851Z,32.00
2018-06-30T12:33:36.542Z,31.90
2018-06-30T12:36:06.589Z,32.00
2018-06-30T12:38:36.234Z,31.90
2018-06-30T12:41:06.116Z,32.10
2018-06-30T12:43:35.727Z,30.90
2018-06-30T12:48:34.682Z,29.40
2018-06-30T12:51:10.628Z,29.40
2018-06-30T12:53:40.297Z,29.90
2018-06-30T12:56:09.928Z,30.30
2018-06-30T12:58:39.525Z,29.40
2018-06-30T13:01:09.201Z,29.00
2018-06-30T13:03:38.830Z,29.30
2018-06-30T13:06:08.598Z,32.10
2018-06-30T13:08:38.439Z,30.80
2018-06-30T13:11:08.133Z,31.60
2018-06-30T13:13:37.882Z,31.40
2018-06-30T13:16:07.918Z,30.10
2018-06-30T13:18:37.730Z,29.70
2018-06-30T13:21:08.190Z,29.70
2018-06-30T13:23:37.790Z,29.60
2018-06-30T13:26:07.433Z,28.80
2018-06-30T13:28:37.119Z,29.70
2018-06-30T13:31:07.130Z,28.80
2018-06-30T13:33:47.313Z,28.50
2018-06-30T13:36:17.018Z,27.40
2018-06-30T13:38:46.650Z,26.70
2018-06-30T13:41:16.692Z,26.30
2018-06-30T13:43:46.357Z,26.70
2018-06-30T13:48:45.414Z,27.50
2018-06-30T13:53:44.560Z,28.00
2018-06-30T13:56:14.223Z,26.90
2018-06-30T13:58:43.980Z,27.50
2018-06-30T14:01:13.629Z,27.40
2018-06-30T14:03:43.373Z,27.70
2018-06-30T14:06:12.957Z,28.10
2018-06-30T14:08:42.927Z,28.40
2018-06-30T14:11:12.590Z,27.50
2018-06-30T14:16:11.553Z,28.10
2018-06-30T14:18:42.138Z,26.50
2018-06-30T14:21:12.430Z,26.60
2018-06-30T14:23:42.915Z,26.80
2018-06-30T14:26:13.829Z,26.50
2018-06-30T14:28:43.884Z,26.80
2018-06-30T14:31:13.928Z,26.50
2018-06-30T14:33:44.146Z,26.60
2018-06-30T14:36:14.608Z,26.00
2018-06-30T14:38:44.694Z,25.90
2018-06-30T14:41:14.891Z,25.80
2018-06-30T14:43:44.964Z,24.80
2018-06-30T14:46:15.249Z,25.20
2018-06-30T14:48:45.437Z,25.10
2018-06-30T14:51:15.484Z,25.60
2018-06-30T14:53:45.505Z,26.60
2018-06-30T14:56:15.703Z,27.70
2018-06-30T14:58:45.823Z,27.00
2018-06-30T15:01:17.188Z,25.80
2018-06-30T15:06:17.174Z,27.70
2018-06-30T15:08:47.236Z,27.70
2018-06-30T15:11:17.359Z,28.80
2018-06-30T15:13:47.527Z,31.10
2018-06-30T15:16:17.768Z,32.60
2018-06-30T15:18:48.123Z,34.90
2018-06-30T15:21:18.888Z,36.60
2018-06-30T15:23:49.293Z,34.70
2018-06-30T15:28:49.438Z,34.00
2018-06-30T15:31:19.997Z,33.20
2018-06-30T15:33:50.494Z,30.70
2018-06-30T15:36:20.840Z,29.30
2018-06-30T15:38:51.316Z,29.80
2018-06-30T15:41:21.875Z,32.40
2018-06-30T15:47:10.101Z,35.90
2018-06-30T15:49:40.495Z,35.10
2018-06-30T15:52:10.956Z,34.80
2018-06-30T15:54:41.223Z,31.50
2018-06-30T15:57:11.630Z,30.90
2018-06-30T15:59:42.063Z,29.60
2018-06-30T16:02:12.554Z,28.70
2018-06-30T16:04:42.811Z,28.10
2018-06-30T16:07:13.336Z,28.20
2018-06-30T16:09:43.707Z,29.20
2018-06-30T16:12:14.213Z,31.50
2018-06-30T16:14:44.886Z,31.30
2018-06-30T16:17:15.248Z,32.80
2018-06-30T16:19:45.748Z,34.30
2018-06-30T16:22:16.195Z,34.30
2018-06-30T16:24:46.535Z,34.80
2018-06-30T16:27:17.092Z,34.50
2018-06-30T16:29:47.613Z,33.40
2018-06-30T16:32:18.128Z,32.30
2018-06-30T16:34:48.512Z,30.80
2018-06-30T16:37:18.947Z,32.30
2018-06-30T16:39:49.331Z,34.90
2018-06-30T16:45:21.944Z,38.00
2018-06-30T16:47:52.536Z,39.50
2018-06-30T16:50:22.974Z,40.40
2018-06-30T16:52:53.620Z,38.70
2018-06-30T16:55:24.017Z,37.20
2018-06-30T16:57:54.792Z,35.90
2018-06-30T17:00:25.261Z,36.70
2018-06-30T17:02:55.753Z,35.80
2018-06-30T17:05:26.295Z,35.80
2018-06-30T17:07:56.779Z,36.10
2018-06-30T17:10:27.183Z,37.00
2018-06-30T17:12:57.550Z,38.50
2018-06-30T17:15:27.946Z,38.00
2018-06-30T17:17:58.585Z,37.40
2018-06-30T17:20:29.051Z,37.70
2018-06-30T17:22:59.452Z,37.20
2018-06-30T17:25:29.770Z,37.80
2018-06-30T17:28:00.013Z,38.50
2018-06-30T17:30:30.495Z,39.50
2018-06-30T17:33:01.066Z,39.90
2018-06-30T17:35:31.479Z,41.20
2018-06-30T17:38:02.153Z,41.60
2018-06-30T17:40:32.627Z,40.90
2018-06-30T17:43:03.142Z,40.50
2018-06-30T17:45:33.673Z,40.60
2018-06-30T17:48:03.963Z,40.40
2018-06-30T17:50:34.403Z,39.50
2018-06-30T17:53:04.912Z,39.70
2018-06-30T17:55:35.412Z,39.10
2018-06-30T17:58:05.975Z,39.10
2018-06-30T18:00:36.506Z,39.70
2018-06-30T18:03:06.927Z,39.70
2018-06-30T18:05:37.571Z,41.00
2018-06-30T18:08:07.915Z,42.20
2018-06-30T18:10:38.305Z,42.70
2018-06-30T18:13:08.863Z,42.90
2018-06-30T18:15:39.361Z,42.90
2018-06-30T18:18:09.866Z,42.80
2018-06-30T18:20:40.417Z,42.80
2018-06-30T18:23:11.052Z,43.70
2018-06-30T18:25:41.475Z,44.10
2018-06-30T18:28:12.245Z,44.40
2018-06-30T18:30:42.670Z,44.60
2018-06-30T18:33:13.047Z,45.00
2018-06-30T18:35:43.668Z,45.40
2018-06-30T18:38:14.104Z,45.60
2018-06-30T18:40:44.726Z,46.00
2018-06-30T18:43:15.061Z,45.90
2018-06-30T18:45:45.612Z,46.80
2018-06-30T18:48:16.095Z,47.70
2018-06-30T18:50:46.663Z,49.00
2018-06-30T18:53:17.219Z,49.70
2018-06-30T18:55:47.690Z,50.30
2018-06-30T18:58:18.096Z,51.20
2018-06-30T19:00:48.642Z,51.50
2018-06-30T19:03:19.254Z,52.10
2018-06-30T19:08:19.818Z,52.90
2018-06-30T19:10:50.232Z,53.00
2018-06-30T19:13:20.624Z,53.50
2018-06-30T19:15:51.023Z,54.20
2018-06-30T19:18:21.667Z,55.50
2018-06-30T19:20:52.291Z,56.30
2018-06-30T19:23:22.928Z,57.20
2018-06-30T19:25:53.523Z,57.90
2018-06-30T19:28:23.946Z,58.80
2018-06-30T19:30:54.424Z,59.60
2018-06-30T19:33:25.099Z,61.50
2018-06-30T19:35:55.656Z,61.90
2018-06-30T19:38:26.235Z,63.60
2018-06-30T19:40:56.839Z,63.80
2018-06-30T19:43:27.315Z,64.00
2018-06-30T19:45:57.835Z,64.30
2018-06-30T19:48:28.634Z,64.40
2018-06-30T19:50:59.098Z,64.80
2018-06-30T19:53:29.538Z,65.30
2018-06-30T19:56:00.104Z,65.70
2018-06-30T19:58:30.825Z,66.10
2018-06-30T20:01:01.187Z,66.60
2018-06-30T20:03:37.439Z,67.30
2018-06-30T20:06:08.022Z,68.00
2018-06-30T20:08:38.531Z,68.80
2018-06-30T20:11:09.238Z,68.00
2018-06-30T20:13:39.816Z,68.10
2018-06-30T20:16:10.366Z,70.80
2018-06-30T20:18:41.052Z,71.70
2018-06-30T20:21:11.317Z,70.10
2018-06-30T20:23:42.069Z,71.50
2018-06-30T20:26:12.983Z,70.00
2018-06-30T20:28:43.394Z,70.20
2018-06-30T20:31:13.707Z,70.00
2018-06-30T20:33:44.266Z,70.50
2018-06-30T20:36:15.793Z,69.60
2018-06-30T20:38:46.192Z,69.50
2018-06-30T20:41:16.932Z,69.80
2018-06-30T20:43:47.300Z,70.90
2018-06-30T20:46:17.943Z,71.20
2018-06-30T20:48:54.664Z,71.20
2018-06-30T20:51:25.336Z,71.80
2018-06-30T20:53:55.849Z,73.10
2018-06-30T20:56:26.285Z,73.90
2018-06-30T20:58:56.669Z,74.20
2018-06-30T21:01:27.458Z,75.30
2018-06-30T21:03:57.913Z,75.60
2018-06-30T21:06:28.440Z,75.10
2018-06-30T21:08:59.042Z,75.80
2018-06-30T21:11:29.523Z,76.40
2018-06-30T21:13:59.996Z,76.90
2018-06-30T21:16:30.443Z,77.30
2018-06-30T21:19:01.048Z,78.10
2018-06-30T21:21:31.704Z,78.50
2018-06-30T21:24:19.966Z,78.70
2018-06-30T21:26:50.532Z,79.50
2018-06-30T21:29:20.959Z,79.90
2018-06-30T21:31:51.456Z,80.20
2018-06-30T21:34:21.987Z,80.70
2018-06-30T21:36:53.498Z,81.50
2018-06-30T21:39:24.021Z,83.00
2018-06-30T21:41:55.239Z,84.40
2018-06-30T21:44:25.600Z,85.20
2018-06-30T21:46:56.670Z,86.50
2018-06-30T21:49:27.049Z,87.30
2018-06-30T21:54:27.411Z,89.10
2018-06-30T21:56:58.182Z,89.30
2018-06-30T21:59:28.716Z,90.10
2018-06-30T22:01:59.240Z,90.70
2018-06-30T22:04:29.628Z,91.10
2018-06-30T22:07:00.017Z,91.30
2018-06-30T22:09:53.456Z,91.90
2018-06-30T22:12:24.383Z,91.80
2018-06-30T22:14:55.120Z,92.00
2018-06-30T22:17:25.462Z,92.20
2018-06-30T22:19:55.962Z,92.90
2018-06-30T22:22:26.611Z,92.90
2018-06-30T22:24:58.304Z,93.30
2018-06-30T22:27:28.921Z,93.70
2018-06-30T22:29:59.489Z,93.70
2018-06-30T22:32:30.010Z,94.00
2018-06-30T22:35:00.536Z,94.10
2018-06-30T22:37:42.208Z,94.60
2018-06-30T22:40:20.476Z,94.40
2018-06-30T22:43:11.123Z,95.00
2018-06-30T22:45:41.612Z,95.20
2018-06-30T22:48:12.002Z,95.60
2018-06-30T22:50:42.565Z,96.10
2018-06-30T22:53:13.044Z,96.30
2018-06-30T22:55:43.425Z,96.40
2018-06-30T22:58:36.012Z,96.50
2018-06-30T23:01:06.435Z,96.70
2018-06-30T23:03:36.802Z,97.70
2018-06-30T23:06:07.720Z,97.90
2018-06-30T23:08:42.136Z,98.60
2018-06-30T23:11:12.371Z,99.60
2018-06-30T23:13:43.066Z,99.90
2018-06-30T23:16:13.763Z,99.90
2018-06-30T23:18:44.080Z,99.90
2018-06-30T23:21:14.531Z,99.90
2018-06-30T23:23:44.856Z,99.90
2018-06-30T23:26:15.377Z,99.90
2018-06-30T23:31:15.815Z,99.90
2018-06-30T23:33:46.305Z,99.90
2018-06-30T23:36:16.779Z,99.90
2018-06-30T23:38:47.413Z,99.90
2018-06-30T23:41:17.798Z,99.90
2018-06-30T23:43:48.300Z,99.90
2018-06-30T23:46:18.825Z,99.90
2018-06-30T23:48:49.206Z,99.90
2018-06-30T23:51:19.673Z,99.90
2018-06-30T23:53:49.983Z,99.90
2018-06-30T23:56:20.418Z,99.90
2018-06-30T23:58:50.811Z,99.90
